createdAt,value
2016-10-03T00:00:01.327Z,99.99
2016-10-03T00:01:02.013Z,99.99
2016-10-03T00:02:02.726Z,99.99
2016-10-03T00:03:03.427Z,99.99
2016-10-03T00:04:04.106Z,99.99
2016-10-03T00:05:04.807Z,99.99
2016-10-03T00:06:05.489Z,99.51
2016-10-03T00:07:06.185Z,99.6
2016-10-03T00:08:06.883Z,99.41
2016-10-03T00:09:07.574Z,99.41
2016-10-03T00:10:08.281Z,99.41
2016-10-03T00:11:08.971Z,99.41
2016-10-03T00:12:09.665Z,99.04
2016-10-03T00:13:10.362Z,99.41
2016-10-03T00:14:11.074Z,99.7
2016-10-03T00:15:11.755Z,99.7
2016-10-03T00:16:12.449Z,99.6
2016-10-03T00:17:13.122Z,99.41
2016-10-03T00:18:13.802Z,99.6
2016-10-03T00:19:14.497Z,99.32
2016-10-03T00:20:15.184Z,99.22
2016-10-03T00:21:15.870Z,99.6
2016-10-03T00:22:16.570Z,99.99
2016-10-03T00:23:17.250Z,99.99
2016-10-03T00:24:17.977Z,99.41
2016-10-03T00:25:18.668Z,99.89
2016-10-03T00:26:19.369Z,99.7
2016-10-03T00:27:20.075Z,99.6
2016-10-03T00:28:20.753Z,99.6
2016-10-03T00:29:21.456Z,99.8
2016-10-03T00:30:22.168Z,99.6
2016-10-03T00:31:22.849Z,99.6
2016-10-03T00:32:23.540Z,99.51
2016-10-03T00:33:24.226Z,99.99
2016-10-03T00:34:24.900Z,99.99
2016-10-03T00:35:25.593Z,99.99
2016-10-03T00:36:26.281Z,99.99
2016-10-03T00:37:26.970Z,99.99
2016-10-03T00:38:27.666Z,99.99
2016-10-03T00:39:28.365Z,99.99
2016-10-03T00:40:29.055Z,99.99
2016-10-03T00:41:29.740Z,99.99
2016-10-03T00:42:30.432Z,99.99
2016-10-03T00:43:31.127Z,99.99
2016-10-03T00:44:31.816Z,99.99
2016-10-03T00:45:32.525Z,99.99
2016-10-03T00:46:33.202Z,99.99
2016-10-03T00:47:33.892Z,99.99
2016-10-03T00:48:34.571Z,99.99
2016-10-03T00:49:35.256Z,99.99
2016-10-03T00:50:35.928Z,99.99
2016-10-03T00:51:36.630Z,99.99
2016-10-03T00:52:37.311Z,99.99
2016-10-03T00:53:37.999Z,99.99
2016-10-03T00:54:38.678Z,99.99
2016-10-03T00:55:39.366Z,99.99
2016-10-03T00:56:40.075Z,99.99
2016-10-03T00:57:40.755Z,99.99
2016-10-03T00:58:41.444Z,99.99
2016-10-03T00:59:42.130Z,99.99
2016-10-03T01:00:42.816Z,99.99
2016-10-03T01:01:43.515Z,99.99
2016-10-03T01:02:44.195Z,99.99
2016-10-03T01:03:44.876Z,99.99
2016-10-03T01:04:45.573Z,99.99
2016-10-03T01:05:46.257Z,99.99
2016-10-03T12:44:01.810Z,78.8
2016-10-03T12:45:02.517Z,79.37
2016-10-03T12:46:03.242Z,78.42
2016-10-03T12:47:03.938Z,78.22
2016-10-03T12:48:04.651Z,78.32
2016-10-03T12:49:05.354Z,78.51
2016-10-03T12:50:06.042Z,78.42
2016-10-03T12:51:06.729Z,77.84
2016-10-03T12:52:07.414Z,78.42
2016-10-03T12:53:08.124Z,78.32
2016-10-03T12:54:08.804Z,76.98
2016-10-03T12:55:09.516Z,76.69
2016-10-03T12:56:10.251Z,75.16
2016-10-03T12:57:10.982Z,75.73
2016-10-03T12:58:11.955Z,76.02
2016-10-03T12:59:12.656Z,77.17
2016-10-03T13:00:13.412Z,77.84
2016-10-03T13:01:14.215Z,78.89
2016-10-03T13:02:15.239Z,78.8
2016-10-03T13:03:15.998Z,79.28
2016-10-03T13:04:16.753Z,79.66
2016-10-03T13:05:17.845Z,80
2016-10-03T13:06:18.562Z,81.29
2016-10-03T13:07:19.388Z,80.9
2016-10-03T13:08:20.127Z,80.58
2016-10-03T13:09:20.822Z,81.54
2016-10-03T13:10:21.539Z,82.4
2016-10-03T13:11:22.833Z,82.59
2016-10-03T13:12:23.102Z,82.68
2016-10-03T13:13:23.962Z,82.68
2016-10-03T13:14:25.033Z,82.59
2016-10-03T13:15:26.607Z,82.87
2016-10-03T13:16:27.298Z,83.54
2016-10-03T13:17:28.019Z,82.63
2016-10-03T13:18:28.767Z,83.45
2016-10-03T13:19:29.605Z,83.54
2016-10-03T13:20:30.318Z,84.02
2016-10-03T13:21:31.041Z,83.68
2016-10-03T13:22:31.792Z,83.87
2016-10-03T13:23:32.520Z,82.63
2016-10-03T13:24:33.238Z,81.34
2016-10-03T13:25:33.970Z,82.2
2016-10-03T13:26:34.676Z,82.43
2016-10-03T13:27:35.399Z,82.2
2016-10-03T13:28:36.135Z,82.01
2016-10-03T13:29:36.842Z,82.01
2016-10-03T13:30:37.541Z,81.92
2016-10-03T13:31:38.258Z,81.44
2016-10-03T13:32:38.979Z,82.01
2016-10-03T13:33:39.705Z,82.11
2016-10-03T13:34:40.404Z,82.2
2016-10-03T13:35:41.851Z,82.3
2016-10-03T13:36:42.568Z,82.68
2016-10-03T13:37:43.303Z,82.68
2016-10-03T13:38:44.284Z,82.59
2016-10-03T13:39:44.991Z,82.92
2016-10-03T13:40:45.718Z,82.73
2016-10-03T13:41:46.418Z,82.82
2016-10-03T13:42:47.121Z,82.11
2016-10-03T13:43:47.822Z,82.92
2016-10-03T13:44:48.520Z,82.24
2016-10-03T13:45:49.248Z,82.06
2016-10-03T13:46:49.965Z,82.53
2016-10-03T13:47:50.660Z,82.15
2016-10-03T13:48:51.388Z,82.24
2016-10-03T13:49:52.102Z,82.06
2016-10-03T13:50:52.865Z,81.67
2016-10-03T13:51:53.575Z,80.71
2016-10-03T13:52:54.297Z,80.43
2016-10-03T13:53:55.000Z,80.19
2016-10-03T13:54:55.718Z,80.29
2016-10-03T13:55:56.410Z,81.15
2016-10-03T13:56:57.100Z,81.63
2016-10-03T13:57:57.825Z,81.96
2016-10-03T13:58:58.575Z,81.38
2016-10-03T13:59:59.266Z,80.52
2016-10-03T14:00:59.985Z,80.62
2016-10-03T14:02:00.678Z,80
2016-10-03T14:03:01.406Z,80.19
2016-10-03T14:04:02.150Z,80.29
2016-10-03T14:05:02.940Z,80.33
2016-10-03T14:06:03.580Z,80.38
2016-10-03T14:07:04.314Z,80.48
2016-10-03T14:08:05.018Z,80.48
2016-10-03T14:09:05.766Z,80.48
2016-10-03T14:10:06.502Z,80.62
2016-10-03T14:11:07.152Z,80.62
2016-10-03T14:12:07.886Z,80.52
2016-10-03T14:13:08.573Z,80.24
2016-10-03T14:14:09.289Z,79.85
2016-10-03T14:15:10.020Z,79.08
2016-10-03T14:16:10.718Z,78.13
2016-10-03T14:17:11.424Z,77.84
2016-10-03T14:18:12.148Z,77.65
2016-10-03T14:19:12.863Z,78.51
2016-10-03T14:20:13.572Z,77.84
2016-10-03T14:21:14.271Z,77.9
2016-10-03T14:22:14.974Z,78.09
2016-10-03T14:23:15.667Z,77.8
2016-10-03T14:24:16.430Z,77.75
2016-10-03T14:25:17.114Z,78.09
2016-10-03T14:26:17.810Z,77.33
2016-10-03T14:27:18.530Z,77.42
2016-10-03T14:28:19.243Z,77.51
2016-10-03T14:29:19.935Z,77.42
2016-10-03T14:30:20.645Z,77.7
2016-10-03T14:31:21.368Z,78.03
2016-10-03T14:32:22.070Z,78.09
2016-10-03T14:33:23.741Z,78.47
2016-10-03T14:34:24.437Z,78.42
2016-10-03T14:35:25.148Z,78.32
2016-10-03T14:36:25.840Z,78.99
2016-10-03T14:37:26.525Z,78.99
2016-10-03T14:38:27.218Z,79.18
2016-10-03T14:39:27.924Z,78.99
2016-10-03T14:40:28.613Z,78.03
2016-10-03T14:41:29.301Z,78.13
2016-10-03T14:42:30.017Z,78.13
2016-10-03T14:43:30.692Z,78.8
2016-10-03T14:44:31.373Z,78.99
2016-10-03T14:45:32.103Z,78.89
2016-10-03T14:46:33.532Z,79.28
2016-10-03T14:47:34.224Z,79.57
2016-10-03T14:48:35.884Z,79.75
2016-10-03T14:49:36.571Z,79.95
2016-10-03T14:50:37.284Z,80.43
2016-10-03T14:51:37.989Z,80.33
2016-10-03T14:52:38.709Z,80.71
2016-10-03T14:53:39.403Z,80.43
2016-10-03T14:54:40.117Z,79.57
2016-10-03T14:55:40.823Z,79.47
2016-10-03T14:56:41.526Z,79.95
2016-10-03T14:57:42.236Z,79.08
2016-10-03T14:58:42.983Z,78.89
2016-10-03T14:59:43.739Z,79.08
2016-10-03T15:00:44.437Z,79.75
2016-10-03T15:01:45.141Z,79.66
2016-10-03T15:02:45.876Z,79.47
2016-10-03T15:03:46.555Z,79.66
2016-10-03T15:04:47.245Z,80.04
2016-10-03T15:05:48.618Z,80.14
2016-10-03T15:06:49.337Z,79.95
2016-10-03T15:07:50.029Z,80.04
2016-10-03T15:08:50.761Z,80.04
2016-10-03T15:09:51.531Z,80.04
2016-10-03T15:10:52.250Z,80.04
2016-10-03T15:11:52.945Z,80.24
2016-10-03T15:12:53.701Z,80.24
2016-10-03T15:13:54.397Z,80.04
2016-10-03T15:14:55.128Z,80.24
2016-10-03T15:15:55.829Z,80.43
2016-10-03T15:16:56.576Z,80.62
2016-10-03T15:17:57.344Z,81.29
2016-10-03T15:18:58.020Z,81.1
2016-10-03T15:19:58.769Z,81.29
2016-10-03T15:20:59.460Z,81.1
2016-10-03T15:22:00.196Z,81.38
2016-10-03T15:23:00.924Z,81.38
2016-10-03T15:24:01.618Z,81.29
2016-10-03T15:25:02.322Z,81.67
2016-10-03T15:26:03.041Z,81.77
2016-10-03T15:27:04.504Z,82.43
2016-10-03T15:28:05.187Z,82.34
2016-10-03T15:29:05.894Z,82.15
2016-10-03T15:30:06.633Z,82.73
2016-10-03T15:31:07.342Z,82.15
2016-10-03T15:32:08.063Z,82.34
2016-10-03T15:33:08.792Z,82.63
2016-10-03T15:34:09.483Z,82.63
2016-10-03T15:35:10.204Z,83.2
2016-10-03T15:36:10.972Z,82.15
2016-10-03T15:37:11.697Z,82.06
2016-10-03T15:38:12.402Z,82.49
2016-10-03T15:39:13.101Z,81.82
2016-10-03T15:40:13.800Z,81.54
2016-10-03T15:41:14.512Z,81.54
2016-10-03T15:42:15.206Z,81.25
2016-10-03T15:43:15.919Z,81.1
2016-10-03T15:44:16.628Z,81
2016-10-03T15:45:17.342Z,81.38
2016-10-03T15:46:18.039Z,80.96
2016-10-03T15:47:18.748Z,81.1
2016-10-03T15:48:19.446Z,81.29
2016-10-03T15:49:20.131Z,81.2
2016-10-03T15:50:20.845Z,81.38
2016-10-03T15:51:21.616Z,80.38
2016-10-03T15:52:22.327Z,80.38
2016-10-03T15:53:23.046Z,80.71
2016-10-03T15:54:23.747Z,80.58
2016-10-03T15:55:24.454Z,81.1
2016-10-03T15:56:25.160Z,81.34
2016-10-03T15:57:25.875Z,81.25
2016-10-03T15:58:26.636Z,81.05
2016-10-03T15:59:27.478Z,81.05
2016-10-03T16:00:28.183Z,81.05
2016-10-03T16:01:28.931Z,80.87
2016-10-03T16:02:29.738Z,81.34
2016-10-03T16:03:30.477Z,81.1
2016-10-03T16:04:31.214Z,81.54
2016-10-03T16:05:31.920Z,81.38
2016-10-03T16:06:32.628Z,81.82
2016-10-03T16:07:33.340Z,81.92
2016-10-03T16:08:34.078Z,81.92
2016-10-03T16:09:34.783Z,81.82
2016-10-03T16:10:35.551Z,82.01
2016-10-03T16:11:36.286Z,82.3
2016-10-03T16:12:37.026Z,82.11
2016-10-03T16:13:37.760Z,82.49
2016-10-03T16:14:38.525Z,82.2
2016-10-03T16:15:39.241Z,82.49
2016-10-03T16:16:39.951Z,82.68
2016-10-03T16:17:40.657Z,82.49
2016-10-03T16:18:41.576Z,82.87
2016-10-03T16:19:42.410Z,82.68
2016-10-03T16:20:43.182Z,82.68
2016-10-03T16:21:44.078Z,82.59
2016-10-03T16:22:44.829Z,83.06
2016-10-03T16:23:45.639Z,82.97
2016-10-03T16:24:46.394Z,83.64
2016-10-03T16:25:47.127Z,83.16
2016-10-03T16:26:47.859Z,82.97
2016-10-03T16:27:48.622Z,83.83
2016-10-03T16:28:49.375Z,83.73
2016-10-03T16:29:50.091Z,83.83
2016-10-03T16:30:52.115Z,83.54
2016-10-03T16:31:52.988Z,83.64
2016-10-03T16:32:54.003Z,83.16
2016-10-03T16:33:54.844Z,83.73
2016-10-03T16:34:55.592Z,83.73
2016-10-03T16:35:56.406Z,83.36
2016-10-03T16:36:57.172Z,83.93
2016-10-03T16:37:57.922Z,83.16
2016-10-03T16:38:58.779Z,83.16
2016-10-03T16:39:59.552Z,83.16
2016-10-03T16:41:00.326Z,83.64
2016-10-03T16:42:01.098Z,83.22
2016-10-03T16:43:01.847Z,83.22
2016-10-03T16:44:02.588Z,83.31
2016-10-03T16:45:03.332Z,83.5
2016-10-03T16:46:04.789Z,83.79
2016-10-03T16:47:05.508Z,83.79
2016-10-03T16:48:06.278Z,83.12
2016-10-03T16:49:07.159Z,83.79
2016-10-03T16:50:07.912Z,83.12
2016-10-03T16:51:08.683Z,82.93
2016-10-03T16:52:09.515Z,82.93
2016-10-03T16:53:10.279Z,83.12
2016-10-03T16:54:11.057Z,83.5
2016-10-03T16:55:11.962Z,83.79
2016-10-03T16:56:12.690Z,83.79
2016-10-03T16:57:13.379Z,83.89
2016-10-03T16:58:14.112Z,83.89
2016-10-03T16:59:14.930Z,84.27
2016-10-03T17:00:15.677Z,84.27
2016-10-03T17:01:16.425Z,84.94
2016-10-03T17:02:17.152Z,84.94
2016-10-03T17:03:17.904Z,84.94
2016-10-03T17:04:18.691Z,84.75
2016-10-03T17:05:19.538Z,84.65
2016-10-03T17:06:20.334Z,85.41
2016-10-03T17:07:21.134Z,85.71
2016-10-03T17:08:21.889Z,85.71
2016-10-03T17:09:22.641Z,85.8
2016-10-03T17:10:23.310Z,86.23
2016-10-03T17:11:24.016Z,86.04
2016-10-03T17:12:24.770Z,85.89
2016-10-03T17:13:25.441Z,86.04
2016-10-03T17:14:26.139Z,86.23
2016-10-03T17:15:26.855Z,85.8
2016-10-03T17:16:27.636Z,86.33
2016-10-03T17:17:28.601Z,86.71
2016-10-03T17:18:29.227Z,86.33
2016-10-03T17:19:29.990Z,86.43
2016-10-03T17:20:30.925Z,87.38
2016-10-03T17:21:31.669Z,87.57
2016-10-03T17:22:32.427Z,87.66
2016-10-03T17:23:33.298Z,88.05
2016-10-03T17:24:34.143Z,87.86
2016-10-03T17:25:34.966Z,88.62
2016-10-03T17:26:35.798Z,88.91
2016-10-03T17:27:36.621Z,88.72
2016-10-03T17:28:37.557Z,89.29
2016-10-03T17:29:38.348Z,89.87
2016-10-03T17:30:39.043Z,90.25
2016-10-03T17:31:39.775Z,90.44
2016-10-03T17:32:40.546Z,90.53
2016-10-03T17:33:41.307Z,90.25
2016-10-03T17:34:42.097Z,90.06
2016-10-03T17:35:42.778Z,90.25
2016-10-03T17:36:43.494Z,90.92
2016-10-03T17:37:44.238Z,90.92
2016-10-03T17:38:44.953Z,90.73
2016-10-03T17:39:45.673Z,91.3
2016-10-03T17:40:46.692Z,91.88
2016-10-03T17:41:47.494Z,91.68
2016-10-03T17:42:48.300Z,91.49
2016-10-03T17:43:49.281Z,92.07
2016-10-03T17:44:49.972Z,92.11
2016-10-03T17:45:50.776Z,92.07
2016-10-03T17:46:51.547Z,92.35
2016-10-03T17:47:52.285Z,93.12
2016-10-03T17:48:53.074Z,92.54
2016-10-03T17:49:53.763Z,92.88
2016-10-03T17:50:54.537Z,93.26
2016-10-03T17:51:55.277Z,92.97
2016-10-03T17:52:56.855Z,93.07
2016-10-03T17:53:57.677Z,93.55
2016-10-03T17:54:58.423Z,93.55
2016-10-03T17:55:59.140Z,93.55
2016-10-03T17:56:59.866Z,93.84
2016-10-03T17:58:00.563Z,94.02
2016-10-03T17:59:01.395Z,93.84
2016-10-03T18:00:02.109Z,94.02
2016-10-03T18:01:02.832Z,94.41
2016-10-03T18:02:03.548Z,94.12
2016-10-03T18:03:04.261Z,94.51
2016-10-03T18:04:05.060Z,94.22
2016-10-03T18:05:05.801Z,94.7
2016-10-03T18:06:06.532Z,94.6
2016-10-03T18:07:07.283Z,95.17
2016-10-03T18:08:08.056Z,94.98
2016-10-03T18:09:08.791Z,95.07
2016-10-03T18:10:09.553Z,95.36
2016-10-03T18:11:10.276Z,94.98
2016-10-03T18:12:11.168Z,95.36
2016-10-03T18:13:12.055Z,95.56
2016-10-03T18:14:12.962Z,95.65
2016-10-03T18:15:13.790Z,95.46
2016-10-03T18:16:14.481Z,95.27
2016-10-03T18:17:15.258Z,95.46
2016-10-03T18:18:16.003Z,95.84
2016-10-03T18:19:16.766Z,95.84
2016-10-03T18:20:17.509Z,95.75
2016-10-03T18:21:18.229Z,96.03
2016-10-03T18:22:18.956Z,96.61
2016-10-03T18:23:19.657Z,95.94
2016-10-03T18:24:20.439Z,96.22
2016-10-03T18:25:21.194Z,96.7
2016-10-03T18:26:21.940Z,96.61
2016-10-03T18:27:22.678Z,96.51
2016-10-03T18:28:23.367Z,96.51
2016-10-03T18:29:24.087Z,96.22
2016-10-03T18:30:24.826Z,96.8
2016-10-03T18:31:25.522Z,96.89
2016-10-03T18:32:26.255Z,96.51
2016-10-03T18:33:26.960Z,96.7
2016-10-03T18:34:27.694Z,96.99
2016-10-03T18:35:28.531Z,96.51
2016-10-03T18:36:29.388Z,96.7
2016-10-03T18:37:30.258Z,96.51
2016-10-03T18:38:31.000Z,96.99
2016-10-03T18:39:31.851Z,97.18
2016-10-03T18:40:32.580Z,96.89
2016-10-03T18:41:33.299Z,97.08
2016-10-03T18:42:34.437Z,96.99
2016-10-03T18:43:35.157Z,96.89
2016-10-03T18:44:35.871Z,96.89
2016-10-03T18:45:36.642Z,96.66
2016-10-03T18:46:37.315Z,96.99
2016-10-03T18:47:38.020Z,96.99
2016-10-03T18:48:38.740Z,96.7
2016-10-03T18:49:39.466Z,96.84
2016-10-03T18:50:40.222Z,97.18
2016-10-03T18:51:40.941Z,96.99
2016-10-03T18:52:41.795Z,97.18
2016-10-03T18:53:42.600Z,96.8
2016-10-03T18:54:43.369Z,97.08
2016-10-03T18:55:44.085Z,97.08
2016-10-03T18:56:44.831Z,96.51
2016-10-03T18:57:45.548Z,96.42
2016-10-03T18:58:46.273Z,96.99
2016-10-03T18:59:46.985Z,96.99
2016-10-03T19:00:47.679Z,96.8
2016-10-03T19:01:48.507Z,96.32
2016-10-03T19:02:49.154Z,96.32
2016-10-03T19:03:49.877Z,96.42
2016-10-03T19:04:50.739Z,96.51
2016-10-03T19:05:51.400Z,96.32
2016-10-03T19:06:52.150Z,96.51
2016-10-03T19:07:52.838Z,96.22
2016-10-03T19:08:53.594Z,96.42
2016-10-03T19:09:54.424Z,96.42
2016-10-03T19:10:55.156Z,96.99
2016-10-03T19:11:55.857Z,96.42
2016-10-03T19:12:56.579Z,96.7
2016-10-03T19:13:57.292Z,96.13
2016-10-03T19:14:57.997Z,96.51
2016-10-03T19:15:58.715Z,96.61
2016-10-03T19:16:59.409Z,96.32
2016-10-03T19:18:00.115Z,96.32
2016-10-03T19:19:00.872Z,96.51
2016-10-03T19:20:01.609Z,96.51
2016-10-03T19:21:02.282Z,96.32
2016-10-03T19:22:03.004Z,96.51
2016-10-03T19:23:03.707Z,96.7
2016-10-03T19:24:04.424Z,96.51
2016-10-03T19:25:05.127Z,96.22
2016-10-03T19:26:05.825Z,96.51
2016-10-03T19:27:06.521Z,96.51
2016-10-03T19:28:07.281Z,96.42
2016-10-03T19:29:07.966Z,96.8
2016-10-03T19:30:08.645Z,96.51
2016-10-03T19:31:09.362Z,96.8
2016-10-03T19:32:10.088Z,96.51
2016-10-03T19:33:10.831Z,97.08
2016-10-03T19:34:11.585Z,96.22
2016-10-03T19:35:12.298Z,96.22
2016-10-03T19:36:13.005Z,96.51
2016-10-03T19:37:13.741Z,96.51
2016-10-03T19:38:14.634Z,96.51
2016-10-03T19:39:15.311Z,96.61
2016-10-03T19:40:16.158Z,96.7
2016-10-03T19:41:16.884Z,96.42
2016-10-03T19:42:17.717Z,96.7
2016-10-03T19:43:18.427Z,96.13
2016-10-03T19:44:19.296Z,96.32
2016-10-03T19:45:20.066Z,95.75
2016-10-03T19:46:20.914Z,95.94
2016-10-03T19:47:21.664Z,95.84
2016-10-03T19:48:22.375Z,95.27
2016-10-03T19:49:23.093Z,95.46
2016-10-03T19:50:23.828Z,95.75
2016-10-03T19:51:24.565Z,95.84
2016-10-03T19:52:25.285Z,95.56
2016-10-03T19:53:25.996Z,95.41
2016-10-03T19:54:26.712Z,95.41
2016-10-03T19:55:27.440Z,95.07
2016-10-03T19:56:28.142Z,95.03
2016-10-03T19:57:29.598Z,94.84
2016-10-03T19:58:30.296Z,94.7
2016-10-03T19:59:31.023Z,94.46
2016-10-03T20:00:31.751Z,94.55
2016-10-03T20:01:32.467Z,94.17
2016-10-03T20:02:33.254Z,94.6
2016-10-03T20:03:33.893Z,94.26
2016-10-03T20:04:34.605Z,93.6
2016-10-03T20:05:35.890Z,93.5
2016-10-03T20:06:36.618Z,92.79
2016-10-03T20:07:37.984Z,93.02
2016-10-03T20:08:38.800Z,92.93
2016-10-03T20:09:39.474Z,92.64
2016-10-03T20:10:40.539Z,92.25
2016-10-03T20:11:41.771Z,91.11
2016-10-03T20:12:43.091Z,91.02
2016-10-03T20:13:44.370Z,89.96
2016-10-03T20:14:45.584Z,90.34
2016-10-03T20:15:46.872Z,89.96
2016-10-03T20:16:47.920Z,90.34
2016-10-03T20:17:49.042Z,90.25
2016-10-03T20:18:49.854Z,89.77
2016-10-03T20:19:50.570Z,89.67
2016-10-03T20:20:54.028Z,89.29
2016-10-03T20:21:54.691Z,89.1
2016-10-03T20:22:55.424Z,88.81
2016-10-03T20:23:56.210Z,89.1
2016-10-03T20:24:56.929Z,88.53
2016-10-03T20:25:57.635Z,88.24
2016-10-03T20:26:58.353Z,87.76
2016-10-03T20:27:59.071Z,88.05
2016-10-03T20:28:59.829Z,88.15
2016-10-03T20:30:00.619Z,87.72
2016-10-03T20:31:01.343Z,88.24
2016-10-03T20:32:02.266Z,88.05
2016-10-03T20:33:03.001Z,87.86
2016-10-03T20:34:03.784Z,88.24
2016-10-03T20:35:04.467Z,87.91
2016-10-03T20:36:05.190Z,87.76
2016-10-03T20:37:06.209Z,87.72
2016-10-03T20:38:06.948Z,87.62
2016-10-03T20:39:08.404Z,88.01
2016-10-03T20:40:09.129Z,87.72
2016-10-03T20:41:09.887Z,88.1
2016-10-03T20:42:11.081Z,87.72
2016-10-03T20:43:11.793Z,88.01
2016-10-03T20:44:12.530Z,87.72
2016-10-03T20:45:13.324Z,87.72
2016-10-03T20:46:14.136Z,87.62
2016-10-03T20:47:14.858Z,87.91
2016-10-03T20:48:15.577Z,87.53
2016-10-03T20:49:16.280Z,87.72
2016-10-03T20:50:16.976Z,87.24
2016-10-03T20:51:18.915Z,86.96
2016-10-03T20:52:20.362Z,87.24
2016-10-03T20:53:21.143Z,87.05
2016-10-03T20:54:22.211Z,87.62
2016-10-03T20:55:23.814Z,87.53
2016-10-03T20:56:25.062Z,87.43
2016-10-03T20:57:26.118Z,87.34
2016-10-03T20:58:27.513Z,87.24
2016-10-03T20:59:28.789Z,87.62
2016-10-03T21:00:30.494Z,87.34
2016-10-03T21:01:31.050Z,87.34
2016-10-03T21:02:32.081Z,87.43
2016-10-03T21:03:37.488Z,87.53
2016-10-03T21:04:37.805Z,87.53
2016-10-03T21:05:38.303Z,87.43
2016-10-03T21:06:40.500Z,87.34
2016-10-03T21:07:43.157Z,87.34
2016-10-03T21:08:44.492Z,87.24
2016-10-03T21:09:45.415Z,87.62
2016-10-03T21:10:47.149Z,87.91
2016-10-03T21:11:48.089Z,87.91
2016-10-03T21:12:48.821Z,88.01
2016-10-03T21:13:50.381Z,87.62
2016-10-03T21:14:51.111Z,87.62
2016-10-03T21:15:52.231Z,87.72
2016-10-03T21:16:53.452Z,88.1
2016-10-03T21:17:54.543Z,88.2
2016-10-03T21:18:56.128Z,87.91
2016-10-03T21:19:56.956Z,87.82
2016-10-03T21:20:57.664Z,87.91
2016-10-03T21:21:58.406Z,87.91
2016-10-03T21:22:59.184Z,87.72
2016-10-03T21:23:59.948Z,87.91
2016-10-03T21:25:02.048Z,87.62
2016-10-03T21:26:03.334Z,88.01
2016-10-03T21:27:06.166Z,88.1
2016-10-03T21:28:07.072Z,88.77
2016-10-03T21:29:08.733Z,88.39
2016-10-03T21:30:09.468Z,88.39
2016-10-03T21:31:10.163Z,88.48
2016-10-03T21:32:11.289Z,88.43
2016-10-03T21:33:12.924Z,88.53
2016-10-03T21:34:13.528Z,88.58
2016-10-03T21:35:15.942Z,88.48
2016-10-03T21:36:17.213Z,88.2
2016-10-03T21:37:17.915Z,88.1
2016-10-03T21:38:19.616Z,88.68
2016-10-03T21:39:20.668Z,89.15
2016-10-03T21:40:22.015Z,88.96
2016-10-03T21:41:23.567Z,89.25
2016-10-03T21:42:24.344Z,89.25
2016-10-03T21:43:26.023Z,89.25
2016-10-03T21:44:27.174Z,89.15
2016-10-03T21:45:29.125Z,89.92
2016-10-03T21:46:30.149Z,90.01
2016-10-03T21:47:31.160Z,89.82
2016-10-03T21:48:32.259Z,90.11
2016-10-03T21:49:33.634Z,90.39
2016-10-03T21:50:34.455Z,90.78
2016-10-03T21:51:35.931Z,90.88
2016-10-03T21:52:37.060Z,90.2
2016-10-03T21:53:38.012Z,90.2
2016-10-03T21:54:38.844Z,89.92
2016-10-03T21:55:39.897Z,90.2
2016-10-03T21:56:40.452Z,90.59
2016-10-03T21:57:41.295Z,90.88
2016-10-03T21:58:42.163Z,90.88
2016-10-03T21:59:44.008Z,90.78
2016-10-03T22:00:44.072Z,90.88
2016-10-03T22:01:45.169Z,90.97
2016-10-03T22:02:45.969Z,91.25
2016-10-03T22:03:46.737Z,91.45
2016-10-03T22:04:47.723Z,91.16
2016-10-03T22:05:49.729Z,91.64
2016-10-03T22:06:50.545Z,91.64
2016-10-03T22:07:51.469Z,91.35
2016-10-03T22:08:52.246Z,91.45
2016-10-03T22:09:53.172Z,91.74
2016-10-03T22:10:53.878Z,91.88
2016-10-03T22:11:54.585Z,91.83
2016-10-03T22:12:55.349Z,91.93
2016-10-03T22:13:56.098Z,92.4
2016-10-03T22:14:56.796Z,92.69
2016-10-03T22:15:57.515Z,92.55
2016-10-03T22:16:58.221Z,92.4
2016-10-03T22:17:59.589Z,92.3
2016-10-03T22:19:00.295Z,91.83
2016-10-03T22:20:01.006Z,91.93
2016-10-03T22:21:01.693Z,92.02
2016-10-03T22:22:03.071Z,91.93
2016-10-03T22:23:04.179Z,92.02
2016-10-03T22:24:05.791Z,91.64
2016-10-03T22:25:07.595Z,91.64
2016-10-03T22:26:08.486Z,91.64
2016-10-03T22:27:10.542Z,91.5
2016-10-03T22:28:15.398Z,91.16
2016-10-03T22:29:17.125Z,91.35
2016-10-03T22:30:17.849Z,90.64
2016-10-03T22:31:19.110Z,90.2
2016-10-03T22:32:19.862Z,91.06
2016-10-03T22:33:20.349Z,90.06
2016-10-03T22:34:21.041Z,89.97
2016-10-03T22:35:21.848Z,90.64
2016-10-03T22:36:22.615Z,90.25
2016-10-03T22:37:23.283Z,90.45
2016-10-03T22:38:23.971Z,90.25
2016-10-03T22:39:24.675Z,89.68
2016-10-03T22:40:25.399Z,89.82
2016-10-03T22:41:26.109Z,89.78
2016-10-03T22:42:26.971Z,89.97
2016-10-03T22:43:27.816Z,89.97
2016-10-03T22:44:28.571Z,89.87
2016-10-03T22:45:29.293Z,89.97
2016-10-03T22:46:29.996Z,89.2
2016-10-03T22:47:30.690Z,89.2
2016-10-03T22:48:31.428Z,88.92
2016-10-03T22:49:32.133Z,88.73
2016-10-03T22:50:32.853Z,88.44
2016-10-03T22:51:33.549Z,88.73
2016-10-03T22:52:34.247Z,88.63
2016-10-03T22:53:34.947Z,88.73
2016-10-03T22:54:35.651Z,88.63
2016-10-03T22:55:36.356Z,88.44
2016-10-03T22:56:37.062Z,88.06
2016-10-03T22:57:37.750Z,88.63
2016-10-03T22:58:39.265Z,88.44
2016-10-03T22:59:39.977Z,88.34
2016-10-03T23:00:40.666Z,88.34
2016-10-03T23:01:41.364Z,88.63
2016-10-03T23:02:42.078Z,88.25
2016-10-03T23:03:42.782Z,88.92
2016-10-03T23:04:43.593Z,88.63
2016-10-03T23:05:44.320Z,88.44
2016-10-03T23:06:45.020Z,88.92
2016-10-03T23:07:45.736Z,89.49
2016-10-03T23:08:46.424Z,89.11
2016-10-03T23:09:47.140Z,89.2
2016-10-03T23:10:47.875Z,89.59
2016-10-03T23:11:48.577Z,89.49
2016-10-03T23:12:49.290Z,89.87
2016-10-03T23:13:49.978Z,89.87
2016-10-03T23:14:51.694Z,89.87
2016-10-03T23:15:52.385Z,90.54
2016-10-03T23:16:53.091Z,90.54
2016-10-03T23:17:53.807Z,90.73
2016-10-03T23:18:54.540Z,89.92
2016-10-03T23:19:55.212Z,90.69
2016-10-03T23:20:55.914Z,90.69
2016-10-03T23:21:56.618Z,90.88
2016-10-03T23:22:57.295Z,91.16
2016-10-03T23:23:57.972Z,91.55
2016-10-03T23:24:58.994Z,91.64
2016-10-03T23:25:59.689Z,91.26
2016-10-03T23:27:00.408Z,91.3
2016-10-03T23:28:01.146Z,91.36
2016-10-03T23:29:01.842Z,92.02
2016-10-03T23:30:02.534Z,91.83
2016-10-03T23:31:03.234Z,92.02
2016-10-03T23:32:03.908Z,92.41
2016-10-03T23:33:04.651Z,92.21
2016-10-03T23:34:05.402Z,92.31
2016-10-03T23:35:06.123Z,92.31
2016-10-03T23:36:06.824Z,92.5
2016-10-03T23:37:07.520Z,92.21
2016-10-03T23:38:08.227Z,92.21
2016-10-03T23:39:08.926Z,92.79
2016-10-03T23:40:09.654Z,92.69
2016-10-03T23:41:10.341Z,92.5
2016-10-03T23:42:11.034Z,92.6
2016-10-03T23:43:11.729Z,92.79
2016-10-03T23:44:12.426Z,92.79
2016-10-03T23:45:13.180Z,93.55
2016-10-03T23:46:13.855Z,93.55
2016-10-03T23:47:14.650Z,93.26
2016-10-03T23:48:15.354Z,93.36
2016-10-03T23:49:16.055Z,93.46
2016-10-03T23:50:16.754Z,93.65
2016-10-03T23:51:17.446Z,93.36
2016-10-03T23:52:18.137Z,93.74
2016-10-03T23:53:18.824Z,94.03
2016-10-03T23:54:19.521Z,94.22
2016-10-03T23:55:20.216Z,94.89
2016-10-03T23:56:20.940Z,95.08
2016-10-03T23:57:21.639Z,94.7
2016-10-03T23:58:22.336Z,94.6
2016-10-03T23:59:23.055Z,94.51
